sensor_id;sensor_type;location;lat;lon;timestamp;temperature;humidity
4215;DHT22;2121;48.062;7.850;2022-11-15T00:00:52;9.80;99.90
4215;DHT22;2121;48.062;7.850;2022-11-15T00:03:23;9.80;99.90
4215;DHT22;2121;48.062;7.850;2022-11-15T00:05:50;9.80;99.90
4215;DHT22;2121;48.062;7.850;2022-11-15T00:08:16;9.80;99.90
4215;DHT22;2121;48.062;7.850;2022-11-15T00:10:42;9.80;99.90
4215;DHT22;2121;48.062;7.850;2022-11-15T00:13:09;9.80;99.90
4215;DHT22;2121;48.062;7.850;2022-11-15T00:15:37;9.80;99.90
4215;DHT22;2121;48.062;7.850;2022-11-15T00:18:05;9.70;99.90
4215;DHT22;2121;48.062;7.850;2022-11-15T00:20:33;9.60;99.90
4215;DHT22;2121;48.062;7.850;2022-11-15T00:22:59;9.60;99.90
4215;DHT22;2121;48.062;7.850;2022-11-15T00:25:25;9.60;99.90
4215;DHT22;2121;48.062;7.850;2022-11-15T00:27:55;9.60;99.90
4215;DHT22;2121;48.062;7.850;2022-11-15T00:30:22;9.60;99.90
4215;DHT22;2121;48.062;7.850;2022-11-15T00:32:48;9.60;99.90
4215;DHT22;2121;48.062;7.850;2022-11-15T00:35:14;9.50;99.90
4215;DHT22;2121;48.062;7.850;2022-11-15T00:37:40;9.50;99.90
4215;DHT22;2121;48.062;7.850;2022-11-15T00:40:06;9.50;99.90
4215;DHT22;2121;48.062;7.850;2022-11-15T00:42:33;9.40;99.90
4215;DHT22;2121;48.062;7.850;2022-11-15T00:44:59;9.50;99.90
4215;DHT22;2121;48.062;7.850;2022-11-15T00:47:24;9.60;99.90
4215;DHT22;2121;48.062;7.850;2022-11-15T00:49:50;9.70;99.90
4215;DHT22;2121;48.062;7.850;2022-11-15T00:52:16;9.70;99.90
4215;DHT22;2121;48.062;7.850;2022-11-15T00:54:41;9.60;99.90
4215;DHT22;2121;48.062;7.850;2022-11-15T00:57:07;9.50;99.90
4215;DHT22;2121;48.062;7.850;2022-11-15T00:59:33;9.40;99.90
4215;DHT22;2121;48.062;7.850;2022-11-15T01:01:58;9.30;99.90
4215;DHT22;2121;48.062;7.850;2022-11-15T01:04:24;9.20;99.90
4215;DHT22;2121;48.062;7.850;2022-11-15T01:06:50;9.20;99.90
4215;DHT22;2121;48.062;7.850;2022-11-15T01:09:15;9.10;99.90
4215;DHT22;2121;48.062;7.850;2022-11-15T01:11:41;9.10;99.90
4215;DHT22;2121;48.062;7.850;2022-11-15T01:14:07;9.20;99.90
4215;DHT22;2121;48.062;7.850;2022-11-15T01:16:33;9.30;99.90
4215;DHT22;2121;48.062;7.850;2022-11-15T01:18:59;9.40;99.90
4215;DHT22;2121;48.062;7.850;2022-11-15T01:21:25;9.40;99.90
4215;DHT22;2121;48.062;7.850;2022-11-15T01:23:54;9.50;99.90
4215;DHT22;2121;48.062;7.850;2022-11-15T01:26:21;9.50;99.90
4215;DHT22;2121;48.062;7.850;2022-11-15T01:28:48;9.50;99.90
4215;DHT22;2121;48.062;7.850;2022-11-15T01:31:16;9.50;99.90
4215;DHT22;2121;48.062;7.850;2022-11-15T01:33:43;9.60;99.90
4215;DHT22;2121;48.062;7.850;2022-11-15T01:36:15;9.60;99.90
4215;DHT22;2121;48.062;7.850;2022-11-15T01:38:42;9.60;99.90
4215;DHT22;2121;48.062;7.850;2022-11-15T01:41:20;9.60;99.90
4215;DHT22;2121;48.062;7.850;2022-11-15T01:43:56;9.60;99.90
4215;DHT22;2121;48.062;7.850;2022-11-15T01:46:28;9.60;99.90
4215;DHT22;2121;48.062;7.850;2022-11-15T01:49:00;9.60;99.90
4215;DHT22;2121;48.062;7.850;2022-11-15T01:51:30;9.70;99.90
4215;DHT22;2121;48.062;7.850;2022-11-15T01:54:01;9.70;99.90
4215;DHT22;2121;48.062;7.850;2022-11-15T01:56:32;9.80;99.90
4215;DHT22;2121;48.062;7.850;2022-11-15T01:59:14;9.70;99.90
4215;DHT22;2121;48.062;7.850;2022-11-15T02:01:40;9.70;99.90
4215;DHT22;2121;48.062;7.850;2022-11-15T02:04:11;9.70;99.90
4215;DHT22;2121;48.062;7.850;2022-11-15T02:06:39;9.80;99.90
4215;DHT22;2121;48.062;7.850;2022-11-15T02:09:06;9.70;99.90
4215;DHT22;2121;48.062;7.850;2022-11-15T02:11:32;9.70;99.90
4215;DHT22;2121;48.062;7.850;2022-11-15T02:14:00;9.80;99.90
4215;DHT22;2121;48.062;7.850;2022-11-15T02:16:35;9.70;99.90
4215;DHT22;2121;48.062;7.850;2022-11-15T02:30:42;9.30;99.90
4215;DHT22;2121;48.062;7.850;2022-11-15T02:41:52;9.30;99.90
4215;DHT22;2121;48.062;7.850;2022-11-15T02:44:36;9.40;99.90
4215;DHT22;2121;48.062;7.850;2022-11-15T02:47:07;9.40;99.90
4215;DHT22;2121;48.062;7.850;2022-11-15T02:49:49;9.50;99.90
4215;DHT22;2121;48.062;7.850;2022-11-15T02:52:20;9.60;99.90
4215;DHT22;2121;48.062;7.850;2022-11-15T02:54:58;9.70;99.90
4215;DHT22;2121;48.062;7.850;2022-11-15T02:57:45;9.80;99.90
4215;DHT22;2121;48.062;7.850;2022-11-15T03:00:20;9.80;99.90
4215;DHT22;2121;48.062;7.850;2022-11-15T03:06:03;9.80;99.90
4215;DHT22;2121;48.062;7.850;2022-11-15T03:11:29;9.80;99.90
4215;DHT22;2121;48.062;7.850;2022-11-15T03:22:17;9.40;99.90
4215;DHT22;2121;48.062;7.850;2022-11-15T03:24:47;9.30;99.90
4215;DHT22;2121;48.062;7.850;2022-11-15T03:27:20;9.40;99.90
4215;DHT22;2121;48.062;7.850;2022-11-15T03:29:56;9.40;99.90
4215;DHT22;2121;48.062;7.850;2022-11-15T03:32:29;9.50;99.90
4215;DHT22;2121;48.062;7.850;2022-11-15T03:35:09;9.40;99.90
4215;DHT22;2121;48.062;7.850;2022-11-15T03:40:41;9.40;99.90
4215;DHT22;2121;48.062;7.850;2022-11-15T03:46:15;9.50;99.90
4215;DHT22;2121;48.062;7.850;2022-11-15T03:48:49;9.50;99.90
4215;DHT22;2121;48.062;7.850;2022-11-15T03:51:21;9.60;99.90
4215;DHT22;2121;48.062;7.850;2022-11-15T03:53:46;9.60;99.90
4215;DHT22;2121;48.062;7.850;2022-11-15T03:56:12;9.60;99.90
4215;DHT22;2121;48.062;7.850;2022-11-15T03:58:38;9.60;99.90
4215;DHT22;2121;48.062;7.850;2022-11-15T04:01:04;9.50;99.90
4215;DHT22;2121;48.062;7.850;2022-11-15T04:03:29;9.50;99.90
4215;DHT22;2121;48.062;7.850;2022-11-15T04:05:55;9.50;99.90
4215;DHT22;2121;48.062;7.850;2022-11-15T04:08:21;9.50;99.90
4215;DHT22;2121;48.062;7.850;2022-11-15T04:10:49;9.50;99.90
4215;DHT22;2121;48.062;7.850;2022-11-15T04:13:14;9.60;99.90
4215;DHT22;2121;48.062;7.850;2022-11-15T04:15:40;9.60;99.90
4215;DHT22;2121;48.062;7.850;2022-11-15T04:18:06;9.60;99.90
4215;DHT22;2121;48.062;7.850;2022-11-15T04:20:32;9.60;99.90
4215;DHT22;2121;48.062;7.850;2022-11-15T04:23:18;9.70;99.90
4215;DHT22;2121;48.062;7.850;2022-11-15T04:26:09;9.70;99.90
4215;DHT22;2121;48.062;7.850;2022-11-15T04:28:36;9.80;99.90
4215;DHT22;2121;48.062;7.850;2022-11-15T04:31:22;9.70;99.90
4215;DHT22;2121;48.062;7.850;2022-11-15T04:33:48;9.80;99.90
4215;DHT22;2121;48.062;7.850;2022-11-15T04:36:14;9.90;99.90
4215;DHT22;2121;48.062;7.850;2022-11-15T04:38:58;9.80;99.90
4215;DHT22;2121;48.062;7.850;2022-11-15T04:41:24;9.80;99.90
4215;DHT22;2121;48.062;7.850;2022-11-15T04:43:50;9.80;99.90
4215;DHT22;2121;48.062;7.850;2022-11-15T04:46:15;9.80;99.90
4215;DHT22;2121;48.062;7.850;2022-11-15T04:48:41;9.80;99.90
4215;DHT22;2121;48.062;7.850;2022-11-15T04:51:07;9.70;99.90
4215;DHT22;2121;48.062;7.850;2022-11-15T04:53:33;9.70;99.90
4215;DHT22;2121;48.062;7.850;2022-11-15T04:55:58;9.70;99.90
4215;DHT22;2121;48.062;7.850;2022-11-15T04:58:24;9.70;99.90
4215;DHT22;2121;48.062;7.850;2022-11-15T05:00:50;9.70;99.90
4215;DHT22;2121;48.062;7.850;2022-11-15T05:03:15;9.70;99.90
4215;DHT22;2121;48.062;7.850;2022-11-15T05:06:00;9.80;99.90
4215;DHT22;2121;48.062;7.850;2022-11-15T05:08:26;9.80;99.90
4215;DHT22;2121;48.062;7.850;2022-11-15T05:10:52;9.80;99.90
4215;DHT22;2121;48.062;7.850;2022-11-15T05:13:18;9.90;99.90
4215;DHT22;2121;48.062;7.850;2022-11-15T05:15:43;9.90;99.90
4215;DHT22;2121;48.062;7.850;2022-11-15T05:18:09;10.00;99.90
4215;DHT22;2121;48.062;7.850;2022-11-15T05:20:35;10.00;99.90
4215;DHT22;2121;48.062;7.850;2022-11-15T05:23:01;10.00;99.90
4215;DHT22;2121;48.062;7.850;2022-11-15T05:25:27;9.90;99.90
4215;DHT22;2121;48.062;7.850;2022-11-15T05:27:53;10.00;99.90
4215;DHT22;2121;48.062;7.850;2022-11-15T05:30:19;10.10;99.90
4215;DHT22;2121;48.062;7.850;2022-11-15T05:32:45;10.10;99.90
4215;DHT22;2121;48.062;7.850;2022-11-15T05:35:18;10.20;99.90
4215;DHT22;2121;48.062;7.850;2022-11-15T05:37:47;10.20;99.90
4215;DHT22;2121;48.062;7.850;2022-11-15T05:40:14;10.30;99.90
4215;DHT22;2121;48.062;7.850;2022-11-15T05:42:40;10.30;99.90
4215;DHT22;2121;48.062;7.850;2022-11-15T05:45:06;10.20;99.90
4215;DHT22;2121;48.062;7.850;2022-11-15T05:47:34;10.20;99.90
4215;DHT22;2121;48.062;7.850;2022-11-15T05:50:02;10.20;99.90
4215;DHT22;2121;48.062;7.850;2022-11-15T05:52:30;10.30;99.90
4215;DHT22;2121;48.062;7.850;2022-11-15T05:54:58;10.30;99.90
4215;DHT22;2121;48.062;7.850;2022-11-15T05:57:24;10.20;99.90
4215;DHT22;2121;48.062;7.850;2022-11-15T05:59:50;10.20;99.90
4215;DHT22;2121;48.062;7.850;2022-11-15T06:02:16;10.30;99.90
4215;DHT22;2121;48.062;7.850;2022-11-15T06:04:42;10.20;99.90
4215;DHT22;2121;48.062;7.850;2022-11-15T06:07:07;10.10;99.90
4215;DHT22;2121;48.062;7.850;2022-11-15T06:09:33;10.10;99.90
4215;DHT22;2121;48.062;7.850;2022-11-15T06:11:59;10.10;99.90
4215;DHT22;2121;48.062;7.850;2022-11-15T06:14:24;10.10;99.90
4215;DHT22;2121;48.062;7.850;2022-11-15T06:16:50;10.10;99.90
4215;DHT22;2121;48.062;7.850;2022-11-15T06:19:16;10.00;99.90
4215;DHT22;2121;48.062;7.850;2022-11-15T06:21:42;10.00;99.90
4215;DHT22;2121;48.062;7.850;2022-11-15T06:24:07;10.00;99.90
4215;DHT22;2121;48.062;7.850;2022-11-15T06:26:33;10.00;99.90
4215;DHT22;2121;48.062;7.850;2022-11-15T06:28:59;10.00;99.90
4215;DHT22;2121;48.062;7.850;2022-11-15T06:31:25;10.00;99.90
4215;DHT22;2121;48.062;7.850;2022-11-15T06:33:50;9.90;99.90
4215;DHT22;2121;48.062;7.850;2022-11-15T06:36:17;9.90;99.90
4215;DHT22;2121;48.062;7.850;2022-11-15T06:38:44;9.90;99.90
4215;DHT22;2121;48.062;7.850;2022-11-15T06:41:11;9.90;99.90
4215;DHT22;2121;48.062;7.850;2022-11-15T06:43:38;9.90;99.90
4215;DHT22;2121;48.062;7.850;2022-11-15T06:46:05;9.90;99.90
4215;DHT22;2121;48.062;7.850;2022-11-15T06:48:32;9.90;99.90
4215;DHT22;2121;48.062;7.850;2022-11-15T06:51:00;9.90;99.90
4215;DHT22;2121;48.062;7.850;2022-11-15T06:53:28;9.90;99.90
4215;DHT22;2121;48.062;7.850;2022-11-15T06:56:02;9.80;99.90
4215;DHT22;2121;48.062;7.850;2022-11-15T06:58:29;9.70;99.90
4215;DHT22;2121;48.062;7.850;2022-11-15T07:01:07;9.60;99.90
4215;DHT22;2121;48.062;7.850;2022-11-15T07:03:36;9.70;99.90
4215;DHT22;2121;48.062;7.850;2022-11-15T07:06:06;9.60;99.90
4215;DHT22;2121;48.062;7.850;2022-11-15T07:08:32;9.50;99.90
4215;DHT22;2121;48.062;7.850;2022-11-15T07:11:07;9.50;99.90
4215;DHT22;2121;48.062;7.850;2022-11-15T07:13:34;9.50;99.90
4215;DHT22;2121;48.062;7.850;2022-11-15T07:16:05;9.60;99.90
4215;DHT22;2121;48.062;7.850;2022-11-15T07:18:39;9.50;99.90
4215;DHT22;2121;48.062;7.850;2022-11-15T07:21:07;9.60;99.90
4215;DHT22;2121;48.062;7.850;2022-11-15T07:23:38;9.60;99.90
4215;DHT22;2121;48.062;7.850;2022-11-15T07:26:06;9.60;99.90
4215;DHT22;2121;48.062;7.850;2022-11-15T07:28:33;9.80;99.90
4215;DHT22;2121;48.062;7.850;2022-11-15T07:31:06;9.70;99.90
4215;DHT22;2121;48.062;7.850;2022-11-15T07:33:34;9.80;99.90
4215;DHT22;2121;48.062;7.850;2022-11-15T07:36:01;9.80;99.90
4215;DHT22;2121;48.062;7.850;2022-11-15T07:38:28;9.80;99.90
4215;DHT22;2121;48.062;7.850;2022-11-15T07:40:58;9.90;99.90
4215;DHT22;2121;48.062;7.850;2022-11-15T07:43:26;10.00;99.90
4215;DHT22;2121;48.062;7.850;2022-11-15T07:45:53;10.10;99.90
4215;DHT22;2121;48.062;7.850;2022-11-15T07:48:19;10.20;99.90
4215;DHT22;2121;48.062;7.850;2022-11-15T07:50:45;10.30;99.90
4215;DHT22;2121;48.062;7.850;2022-11-15T07:53:11;10.30;99.90
4215;DHT22;2121;48.062;7.850;2022-11-15T07:55:39;10.40;99.90
4215;DHT22;2121;48.062;7.850;2022-11-15T07:58:07;10.40;99.90
4215;DHT22;2121;48.062;7.850;2022-11-15T08:00:35;10.50;99.90
4215;DHT22;2121;48.062;7.850;2022-11-15T08:03:06;10.60;99.90
4215;DHT22;2121;48.062;7.850;2022-11-15T08:05:34;10.80;99.90
4215;DHT22;2121;48.062;7.850;2022-11-15T08:08:00;10.90;99.90
4215;DHT22;2121;48.062;7.850;2022-11-15T08:10:27;11.00;99.90
4215;DHT22;2121;48.062;7.850;2022-11-15T08:13:08;11.10;99.90
4215;DHT22;2121;48.062;7.850;2022-11-15T08:15:35;11.10;99.90
4215;DHT22;2121;48.062;7.850;2022-11-15T08:18:08;11.20;99.90
4215;DHT22;2121;48.062;7.850;2022-11-15T08:20:36;11.40;99.90
4215;DHT22;2121;48.062;7.850;2022-11-15T08:23:04;11.40;99.90
4215;DHT22;2121;48.062;7.850;2022-11-15T08:25:32;11.50;99.90
4215;DHT22;2121;48.062;7.850;2022-11-15T08:28:00;11.60;99.90
4215;DHT22;2121;48.062;7.850;2022-11-15T08:30:29;11.80;99.90
4215;DHT22;2121;48.062;7.850;2022-11-15T08:32:57;11.90;99.90
4215;DHT22;2121;48.062;7.850;2022-11-15T08:35:24;11.90;99.90
4215;DHT22;2121;48.062;7.850;2022-11-15T08:37:52;12.00;99.90
4215;DHT22;2121;48.062;7.850;2022-11-15T08:40:18;12.10;99.90
4215;DHT22;2121;48.062;7.850;2022-11-15T08:42:47;12.20;99.90
4215;DHT22;2121;48.062;7.850;2022-11-15T08:45:13;12.20;99.90
4215;DHT22;2121;48.062;7.850;2022-11-15T08:47:39;12.10;99.90
4215;DHT22;2121;48.062;7.850;2022-11-15T08:50:06;12.10;99.90
4215;DHT22;2121;48.062;7.850;2022-11-15T08:52:32;12.10;99.90
4215;DHT22;2121;48.062;7.850;2022-11-15T08:54:58;12.10;99.90
4215;DHT22;2121;48.062;7.850;2022-11-15T08:57:24;12.10;99.90
4215;DHT22;2121;48.062;7.850;2022-11-15T08:59:50;12.10;99.90
4215;DHT22;2121;48.062;7.850;2022-11-15T09:02:16;12.00;99.90
4215;DHT22;2121;48.062;7.850;2022-11-15T09:04:43;12.00;99.90
4215;DHT22;2121;48.062;7.850;2022-11-15T09:07:09;11.90;99.90
4215;DHT22;2121;48.062;7.850;2022-11-15T09:09:37;11.90;99.90
4215;DHT22;2121;48.062;7.850;2022-11-15T09:12:04;11.80;99.90
4215;DHT22;2121;48.062;7.850;2022-11-15T09:14:30;11.70;99.90
4215;DHT22;2121;48.062;7.850;2022-11-15T09:16:56;11.50;99.90
4215;DHT22;2121;48.062;7.850;2022-11-15T09:19:22;11.40;99.90
4215;DHT22;2121;48.062;7.850;2022-11-15T09:21:47;11.40;99.90
4215;DHT22;2121;48.062;7.850;2022-11-15T09:24:13;11.40;99.90
4215;DHT22;2121;48.062;7.850;2022-11-15T09:26:40;11.40;99.90
4215;DHT22;2121;48.062;7.850;2022-11-15T09:29:06;11.50;99.90
4215;DHT22;2121;48.062;7.850;2022-11-15T09:31:32;11.50;99.90
4215;DHT22;2121;48.062;7.850;2022-11-15T09:33:58;11.40;99.90
4215;DHT22;2121;48.062;7.850;2022-11-15T09:36:24;11.50;99.90
4215;DHT22;2121;48.062;7.850;2022-11-15T09:38:50;11.70;99.90
4215;DHT22;2121;48.062;7.850;2022-11-15T09:49:21;12.20;99.90
4215;DHT22;2121;48.062;7.850;2022-11-15T09:51:50;12.30;99.90
4215;DHT22;2121;48.062;7.850;2022-11-15T09:54:27;12.30;99.90
4215;DHT22;2121;48.062;7.850;2022-11-15T10:00:19;12.40;99.90
4215;DHT22;2121;48.062;7.850;2022-11-15T10:03:08;12.40;99.90
4215;DHT22;2121;48.062;7.850;2022-11-15T10:05:44;12.50;99.90
4215;DHT22;2121;48.062;7.850;2022-11-15T10:11:08;12.30;99.90
4215;DHT22;2121;48.062;7.850;2022-11-15T10:13:41;12.20;99.90
4215;DHT22;2121;48.062;7.850;2022-11-15T10:24:44;13.00;99.90
4215;DHT22;2121;48.062;7.850;2022-11-15T10:27:16;13.20;99.90
4215;DHT22;2121;48.062;7.850;2022-11-15T10:29:47;13.40;99.90
4215;DHT22;2121;48.062;7.850;2022-11-15T10:32:17;13.50;99.90
4215;DHT22;2121;48.062;7.850;2022-11-15T10:34:47;13.60;99.90
4215;DHT22;2121;48.062;7.850;2022-11-15T10:37:14;13.60;99.90
4215;DHT22;2121;48.062;7.850;2022-11-15T10:39:40;13.60;99.90
4215;DHT22;2121;48.062;7.850;2022-11-15T10:42:26;13.70;99.90
4215;DHT22;2121;48.062;7.850;2022-11-15T10:44:53;13.80;99.90
4215;DHT22;2121;48.062;7.850;2022-11-15T10:47:31;13.80;99.90
4215;DHT22;2121;48.062;7.850;2022-11-15T10:50:07;13.70;99.90
4215;DHT22;2121;48.062;7.850;2022-11-15T10:52:52;13.80;99.90
4215;DHT22;2121;48.062;7.850;2022-11-15T10:57:53;13.80;99.90
4215;DHT22;2121;48.062;7.850;2022-11-15T11:08:23;14.10;99.90
4215;DHT22;2121;48.062;7.850;2022-11-15T11:10:54;14.00;99.90
4215;DHT22;2121;48.062;7.850;2022-11-15T11:13:30;14.00;99.90
4215;DHT22;2121;48.062;7.850;2022-11-15T11:19:16;14.10;99.90
4215;DHT22;2121;48.062;7.850;2022-11-15T11:43:09;13.90;99.90
4215;DHT22;2121;48.062;7.850;2022-11-15T11:48:50;13.90;99.90
4215;DHT22;2121;48.062;7.850;2022-11-15T11:51:21;14.00;99.90
4215;DHT22;2121;48.062;7.850;2022-11-15T11:53:55;13.90;99.90
4215;DHT22;2121;48.062;7.850;2022-11-15T11:56:34;14.00;99.90
4215;DHT22;2121;48.062;7.850;2022-11-15T11:59:09;14.30;99.90
4215;DHT22;2121;48.062;7.850;2022-11-15T12:01:42;14.60;99.90
4215;DHT22;2121;48.062;7.850;2022-11-15T12:04:29;14.90;99.90
4215;DHT22;2121;48.062;7.850;2022-11-15T12:15:41;14.80;99.90
4215;DHT22;2121;48.062;7.850;2022-11-15T12:18:14;14.80;99.90
4215;DHT22;2121;48.062;7.850;2022-11-15T12:21:13;14.60;99.90
4215;DHT22;2121;48.062;7.850;2022-11-15T12:23:54;14.40;99.90
4215;DHT22;2121;48.062;7.850;2022-11-15T12:26:33;14.40;99.90
4215;DHT22;2121;48.062;7.850;2022-11-15T12:29:19;14.50;99.90
4215;DHT22;2121;48.062;7.850;2022-11-15T12:31:53;14.70;99.90
4215;DHT22;2121;48.062;7.850;2022-11-15T12:36:49;14.70;99.90
4215;DHT22;2121;48.062;7.850;2022-11-15T12:39:16;14.70;99.90
4215;DHT22;2121;48.062;7.850;2022-11-15T13:02:32;14.50;99.90
4215;DHT22;2121;48.062;7.850;2022-11-15T13:23:10;14.00;99.90
4215;DHT22;2121;48.062;7.850;2022-11-15T13:25:44;13.90;99.90
4215;DHT22;2121;48.062;7.850;2022-11-15T13:28:34;13.70;99.90
4215;DHT22;2121;48.062;7.850;2022-11-15T13:31:37;13.60;99.90
4215;DHT22;2121;48.062;7.850;2022-11-15T13:34:30;13.60;99.90
4215;DHT22;2121;48.062;7.850;2022-11-15T13:37:01;13.50;99.90
4215;DHT22;2121;48.062;7.850;2022-11-15T13:39:32;13.50;99.90
4215;DHT22;2121;48.062;7.850;2022-11-15T13:41:59;13.60;99.90
4215;DHT22;2121;48.062;7.850;2022-11-15T13:44:30;13.60;99.90
4215;DHT22;2121;48.062;7.850;2022-11-15T13:47:14;13.60;99.90
4215;DHT22;2121;48.062;7.850;2022-11-15T13:49:41;13.60;99.90
4215;DHT22;2121;48.062;7.850;2022-11-15T13:52:10;13.50;99.90
4215;DHT22;2121;48.062;7.850;2022-11-15T13:57:44;13.40;99.90
4215;DHT22;2121;48.062;7.850;2022-11-15T14:02:57;13.40;99.90
4215;DHT22;2121;48.062;7.850;2022-11-15T14:05:39;13.30;99.90
4215;DHT22;2121;48.062;7.850;2022-11-15T14:08:23;13.30;99.90
4215;DHT22;2121;48.062;7.850;2022-11-15T14:11:09;13.30;99.90
4215;DHT22;2121;48.062;7.850;2022-11-15T14:13:42;13.40;99.90
4215;DHT22;2121;48.062;7.850;2022-11-15T14:16:47;13.40;99.90
4215;DHT22;2121;48.062;7.850;2022-11-15T14:22:08;13.60;99.90
4215;DHT22;2121;48.062;7.850;2022-11-15T14:24:37;13.50;99.90
4215;DHT22;2121;48.062;7.850;2022-11-15T14:27:26;13.50;99.90
4215;DHT22;2121;48.062;7.850;2022-11-15T14:29:54;13.40;99.90
4215;DHT22;2121;48.062;7.850;2022-11-15T14:32:25;13.50;99.90
4215;DHT22;2121;48.062;7.850;2022-11-15T14:34:57;13.50;99.90
4215;DHT22;2121;48.062;7.850;2022-11-15T14:37:27;13.50;99.90
4215;DHT22;2121;48.062;7.850;2022-11-15T14:39:54;13.60;99.90
4215;DHT22;2121;48.062;7.850;2022-11-15T14:42:23;13.60;99.90
4215;DHT22;2121;48.062;7.850;2022-11-15T14:44:50;13.60;99.90
4215;DHT22;2121;48.062;7.850;2022-11-15T14:47:17;13.70;99.90
4215;DHT22;2121;48.062;7.850;2022-11-15T14:49:43;13.60;99.90
4215;DHT22;2121;48.062;7.850;2022-11-15T14:52:32;13.50;99.90
4215;DHT22;2121;48.062;7.850;2022-11-15T14:55:04;13.40;99.90
4215;DHT22;2121;48.062;7.850;2022-11-15T14:57:38;13.40;99.90
4215;DHT22;2121;48.062;7.850;2022-11-15T15:00:04;13.30;99.90
4215;DHT22;2121;48.062;7.850;2022-11-15T15:02:30;13.20;99.90
4215;DHT22;2121;48.062;7.850;2022-11-15T15:04:56;13.30;99.90
4215;DHT22;2121;48.062;7.850;2022-11-15T15:07:26;13.30;99.90
4215;DHT22;2121;48.062;7.850;2022-11-15T15:09:52;13.30;99.90
4215;DHT22;2121;48.062;7.850;2022-11-15T15:12:20;13.10;99.90
4215;DHT22;2121;48.062;7.850;2022-11-15T15:14:48;13.10;99.90
4215;DHT22;2121;48.062;7.850;2022-11-15T15:17:15;13.00;99.90
4215;DHT22;2121;48.062;7.850;2022-11-15T15:19:42;12.90;99.90
4215;DHT22;2121;48.062;7.850;2022-11-15T15:22:16;12.70;99.90
4215;DHT22;2121;48.062;7.850;2022-11-15T15:24:45;12.60;99.90
4215;DHT22;2121;48.062;7.850;2022-11-15T15:27:12;12.40;99.90
4215;DHT22;2121;48.062;7.850;2022-11-15T15:29:38;12.40;99.90
4215;DHT22;2121;48.062;7.850;2022-11-15T15:32:05;12.40;99.90
4215;DHT22;2121;48.062;7.850;2022-11-15T15:34:31;12.40;99.90
4215;DHT22;2121;48.062;7.850;2022-11-15T15:37:23;12.30;99.90
4215;DHT22;2121;48.062;7.850;2022-11-15T15:39:55;12.40;99.90
4215;DHT22;2121;48.062;7.850;2022-11-15T15:42:22;12.30;99.90
4215;DHT22;2121;48.062;7.850;2022-11-15T15:44:49;12.30;99.90
4215;DHT22;2121;48.062;7.850;2022-11-15T15:47:19;12.30;99.90
4215;DHT22;2121;48.062;7.850;2022-11-15T15:49:47;12.30;99.90
4215;DHT22;2121;48.062;7.850;2022-11-15T15:52:13;12.20;99.90
4215;DHT22;2121;48.062;7.850;2022-11-15T15:54:39;12.30;99.90
4215;DHT22;2121;48.062;7.850;2022-11-15T15:57:07;12.20;99.90
4215;DHT22;2121;48.062;7.850;2022-11-15T15:59:34;12.10;99.90
4215;DHT22;2121;48.062;7.850;2022-11-15T16:01:59;12.20;99.90
4215;DHT22;2121;48.062;7.850;2022-11-15T16:04:25;12.10;99.90
4215;DHT22;2121;48.062;7.850;2022-11-15T16:06:52;12.10;99.90
4215;DHT22;2121;48.062;7.850;2022-11-15T16:09:20;12.00;99.90
4215;DHT22;2121;48.062;7.850;2022-11-15T16:12:05;11.80;99.90
4215;DHT22;2121;48.062;7.850;2022-11-15T16:14:32;11.80;99.90
4215;DHT22;2121;48.062;7.850;2022-11-15T16:16:57;11.70;99.90
4215;DHT22;2121;48.062;7.850;2022-11-15T16:19:23;11.60;99.90
4215;DHT22;2121;48.062;7.850;2022-11-15T16:21:49;11.60;99.90
4215;DHT22;2121;48.062;7.850;2022-11-15T16:24:17;11.60;99.90
4215;DHT22;2121;48.062;7.850;2022-11-15T16:26:44;11.60;99.90
4215;DHT22;2121;48.062;7.850;2022-11-15T16:29:10;11.60;99.90
4215;DHT22;2121;48.062;7.850;2022-11-15T16:31:36;11.70;99.90
4215;DHT22;2121;48.062;7.850;2022-11-15T16:34:02;11.60;99.90
4215;DHT22;2121;48.062;7.850;2022-11-15T16:36:30;11.50;99.90
4215;DHT22;2121;48.062;7.850;2022-11-15T16:39:00;11.50;99.90
4215;DHT22;2121;48.062;7.850;2022-11-15T16:41:29;11.40;99.90
4215;DHT22;2121;48.062;7.850;2022-11-15T16:43:55;11.40;99.90
4215;DHT22;2121;48.062;7.850;2022-11-15T16:46:24;11.40;99.90
4215;DHT22;2121;48.062;7.850;2022-11-15T16:48:51;11.50;99.90
4215;DHT22;2121;48.062;7.850;2022-11-15T16:51:19;11.50;99.90
4215;DHT22;2121;48.062;7.850;2022-11-15T16:53:45;11.60;99.90
4215;DHT22;2121;48.062;7.850;2022-11-15T16:58:54;11.40;99.90
4215;DHT22;2121;48.062;7.850;2022-11-15T17:01:27;11.50;99.90
4215;DHT22;2121;48.062;7.850;2022-11-15T17:03:55;11.50;99.90
4215;DHT22;2121;48.062;7.850;2022-11-15T17:06:21;11.40;99.90
4215;DHT22;2121;48.062;7.850;2022-11-15T17:08:48;11.40;99.90
4215;DHT22;2121;48.062;7.850;2022-11-15T17:11:19;11.30;99.90
4215;DHT22;2121;48.062;7.850;2022-11-15T17:13:47;11.20;99.90
4215;DHT22;2121;48.062;7.850;2022-11-15T17:16:15;11.30;99.90
4215;DHT22;2121;48.062;7.850;2022-11-15T17:18:43;11.20;99.90
4215;DHT22;2121;48.062;7.850;2022-11-15T17:21:14;11.30;99.90
4215;DHT22;2121;48.062;7.850;2022-11-15T17:23:41;11.30;99.90
4215;DHT22;2121;48.062;7.850;2022-11-15T17:26:09;11.30;99.90
4215;DHT22;2121;48.062;7.850;2022-11-15T17:28:37;11.30;99.90
4215;DHT22;2121;48.062;7.850;2022-11-15T17:31:08;11.20;99.90
4215;DHT22;2121;48.062;7.850;2022-11-15T17:33:36;11.20;99.90
4215;DHT22;2121;48.062;7.850;2022-11-15T17:36:04;11.20;99.90
4215;DHT22;2121;48.062;7.850;2022-11-15T17:38:32;11.10;99.90
4215;DHT22;2121;48.062;7.850;2022-11-15T17:41:04;11.10;99.90
4215;DHT22;2121;48.062;7.850;2022-11-15T17:43:39;11.00;99.90
4215;DHT22;2121;48.062;7.850;2022-11-15T17:46:08;11.00;99.90
4215;DHT22;2121;48.062;7.850;2022-11-15T17:48:36;11.00;99.90
4215;DHT22;2121;48.062;7.850;2022-11-15T17:51:05;11.00;99.90
4215;DHT22;2121;48.062;7.850;2022-11-15T17:53:33;11.00;99.90
4215;DHT22;2121;48.062;7.850;2022-11-15T17:58:29;11.00;99.90
4215;DHT22;2121;48.062;7.850;2022-11-15T18:01:04;10.90;99.90
4215;DHT22;2121;48.062;7.850;2022-11-15T18:03:33;10.90;99.90
4215;DHT22;2121;48.062;7.850;2022-11-15T18:06:01;10.80;99.90
4215;DHT22;2121;48.062;7.850;2022-11-15T18:08:27;10.80;99.90
4215;DHT22;2121;48.062;7.850;2022-11-15T18:11:17;10.80;99.90
4215;DHT22;2121;48.062;7.850;2022-11-15T18:13:46;10.80;99.90
4215;DHT22;2121;48.062;7.850;2022-11-15T18:16:16;10.90;99.90
4215;DHT22;2121;48.062;7.850;2022-11-15T18:18:43;10.90;99.90
4215;DHT22;2121;48.062;7.850;2022-11-15T18:21:15;10.90;99.90
4215;DHT22;2121;48.062;7.850;2022-11-15T18:23:43;10.90;99.90
4215;DHT22;2121;48.062;7.850;2022-11-15T18:26:12;10.90;99.90
4215;DHT22;2121;48.062;7.850;2022-11-15T18:28:41;11.00;99.90
4215;DHT22;2121;48.062;7.850;2022-11-15T18:31:17;11.00;99.90
4215;DHT22;2121;48.062;7.850;2022-11-15T18:33:44;10.90;99.90
4215;DHT22;2121;48.062;7.850;2022-11-15T18:36:15;10.90;99.90
4215;DHT22;2121;48.062;7.850;2022-11-15T18:38:43;10.90;99.90
4215;DHT22;2121;48.062;7.850;2022-11-15T18:41:13;10.90;99.90
4215;DHT22;2121;48.062;7.850;2022-11-15T18:43:42;10.90;99.90
4215;DHT22;2121;48.062;7.850;2022-11-15T18:46:11;10.90;99.90
4215;DHT22;2121;48.062;7.850;2022-11-15T18:48:40;10.80;99.90
4215;DHT22;2121;48.062;7.850;2022-11-15T18:51:09;10.80;99.90
4215;DHT22;2121;48.062;7.850;2022-11-15T18:53:39;10.80;99.90
4215;DHT22;2121;48.062;7.850;2022-11-15T18:56:17;10.80;99.90
4215;DHT22;2121;48.062;7.850;2022-11-15T18:58:47;10.80;99.90
4215;DHT22;2121;48.062;7.850;2022-11-15T19:01:19;10.80;99.90
4215;DHT22;2121;48.062;7.850;2022-11-15T19:03:48;10.80;99.90
4215;DHT22;2121;48.062;7.850;2022-11-15T19:06:26;10.80;99.90
4215;DHT22;2121;48.062;7.850;2022-11-15T19:08:55;10.80;99.90